createdAt,value
2022-11-20T00:00:57.158Z,9.47
2022-11-20T00:03:25.331Z,9.40
2022-11-20T00:05:53.170Z,9.43
2022-11-20T00:08:21.379Z,10.20
2022-11-20T00:10:50.851Z,10.47
2022-11-20T00:13:18.756Z,10.00
2022-11-20T00:15:46.763Z,10.27
2022-11-20T00:18:14.723Z,10.10
2022-11-20T00:20:43.452Z,9.83
2022-11-20T00:23:11.234Z,10.37
2022-11-20T00:25:39.283Z,10.23
2022-11-20T00:28:08.466Z,9.67
2022-11-20T00:30:36.457Z,8.87
2022-11-20T00:33:04.640Z,11.43
2022-11-20T00:35:32.522Z,10.27
2022-11-20T00:38:00.385Z,9.60
2022-11-20T00:40:28.313Z,10.73
2022-11-20T00:42:56.212Z,9.37
2022-11-20T00:45:25.562Z,9.47
2022-11-20T00:47:53.647Z,10.90
2022-11-20T00:50:21.414Z,19.33
2022-11-20T00:52:49.280Z,10.77
2022-11-20T00:55:17.200Z,10.73
2022-11-20T00:57:44.989Z,9.50
2022-11-20T01:00:13.436Z,8.93
2022-11-20T01:02:42.679Z,10.73
2022-11-20T01:05:11.730Z,9.67
2022-11-20T01:07:39.624Z,10.35
2022-11-20T01:10:08.595Z,10.23
2022-11-20T01:12:38.116Z,10.32
2022-11-20T01:15:07.075Z,8.87
2022-11-20T01:17:35.013Z,9.90
2022-11-20T01:20:04.453Z,9.77
2022-11-20T01:22:32.327Z,10.33
2022-11-20T01:25:00.246Z,8.83
2022-11-20T01:27:28.105Z,8.97
2022-11-20T01:30:00.960Z,9.23
2022-11-20T01:32:29.183Z,10.67
2022-11-20T01:34:57.193Z,10.53
2022-11-20T01:37:26.609Z,9.90
2022-11-20T01:39:54.348Z,9.73
2022-11-20T01:42:39.751Z,10.23
2022-11-20T01:45:40.973Z,8.53
2022-11-20T01:48:09.259Z,10.13
2022-11-20T01:50:37.321Z,10.23
2022-11-20T01:53:09.853Z,10.30
2022-11-20T01:55:43.817Z,10.32
2022-11-20T01:58:12.189Z,10.40
2022-11-20T02:00:40.045Z,11.80
2022-11-20T02:03:11.204Z,11.20
2022-11-20T02:05:43.882Z,11.02
2022-11-20T02:08:14.606Z,11.03
2022-11-20T02:10:42.475Z,10.87
2022-11-20T02:13:28.116Z,12.80
2022-11-20T02:15:56.323Z,11.90
2022-11-20T02:18:26.110Z,11.07
2022-11-20T02:20:58.147Z,12.75
2022-11-20T02:23:34.210Z,12.50
2022-11-20T02:26:05.562Z,11.77
2022-11-20T02:28:33.539Z,12.57
2022-11-20T02:31:02.797Z,12.90
2022-11-20T02:33:30.578Z,12.27
2022-11-20T02:35:58.537Z,13.37
2022-11-20T02:38:26.730Z,11.17
2022-11-20T02:40:55.827Z,11.32
2022-11-20T02:43:25.862Z,9.75
2022-11-20T02:45:53.705Z,9.93
2022-11-20T02:48:22.405Z,10.43
2022-11-20T02:50:52.324Z,10.25
2022-11-20T02:53:20.543Z,10.67
2022-11-20T02:55:48.337Z,10.15
2022-11-20T02:58:16.256Z,10.40
2022-11-20T03:00:45.520Z,9.68
2022-11-20T03:03:13.298Z,11.05
2022-11-20T03:05:41.495Z,10.10
2022-11-20T03:08:09.432Z,9.27
2022-11-20T03:10:37.365Z,10.35
2022-11-20T03:13:05.343Z,9.77
2022-11-20T03:15:33.205Z,10.52
2022-11-20T03:18:02.473Z,9.97
2022-11-20T03:20:30.362Z,10.15
2022-11-20T03:22:58.240Z,11.00
2022-11-20T03:25:26.145Z,10.35
2022-11-20T03:27:54.208Z,10.27
2022-11-20T03:30:26.272Z,10.38
2022-11-20T03:32:57.203Z,11.18
2022-11-20T03:35:26.735Z,11.10
2022-11-20T03:37:54.680Z,9.43
2022-11-20T03:40:22.654Z,9.57
2022-11-20T03:42:50.487Z,11.55
2022-11-20T03:45:19.926Z,12.00
2022-11-20T03:47:48.381Z,10.70
2022-11-20T03:50:16.773Z,9.57
2022-11-20T03:52:46.137Z,10.80
2022-11-20T03:55:13.964Z,9.68
2022-11-20T03:57:41.922Z,11.23
2022-11-20T04:00:11.009Z,10.38
2022-11-20T04:02:38.968Z,10.75
2022-11-20T04:05:10.647Z,10.40
2022-11-20T04:07:38.804Z,10.80
2022-11-20T04:10:08.971Z,11.80
2022-11-20T04:12:36.809Z,11.10
2022-11-20T04:15:04.967Z,9.90
2022-11-20T04:17:32.838Z,10.50
2022-11-20T04:20:00.656Z,9.67
2022-11-20T04:22:28.682Z,10.35
2022-11-20T04:24:56.532Z,11.35
2022-11-20T04:27:25.811Z,11.65
2022-11-20T04:29:53.686Z,9.82
2022-11-20T04:32:21.460Z,11.63
2022-11-20T04:34:49.359Z,9.68
2022-11-20T04:37:17.228Z,10.75
2022-11-20T04:39:45.082Z,11.45
2022-11-20T04:42:31.346Z,11.30
2022-11-20T04:45:00.608Z,10.60
2022-11-20T04:47:28.593Z,9.60
2022-11-20T04:49:56.376Z,11.25
2022-11-20T04:52:24.286Z,11.20
2022-11-20T04:54:53.890Z,10.63
2022-11-20T04:57:22.066Z,10.75
2022-11-20T04:59:50.000Z,11.25
2022-11-20T05:02:19.568Z,10.85
2022-11-20T05:04:47.415Z,11.43
2022-11-20T05:07:15.361Z,11.35
2022-11-20T05:09:43.241Z,10.65
2022-11-20T05:12:11.185Z,10.82
2022-11-20T05:14:39.169Z,10.40
2022-11-20T05:17:07.239Z,9.95
2022-11-20T05:19:36.496Z,11.32
2022-11-20T05:22:04.397Z,11.55
2022-11-20T05:24:32.200Z,11.57
2022-11-20T05:26:59.939Z,10.60
2022-11-20T05:29:27.784Z,10.77
2022-11-20T05:31:55.639Z,10.98
2022-11-20T05:34:23.469Z,9.75
2022-11-20T05:36:53.175Z,10.43
2022-11-20T05:39:21.276Z,10.20
2022-11-20T05:42:09.665Z,10.88
2022-11-20T05:44:37.614Z,11.43
2022-11-20T05:47:05.707Z,10.95
2022-11-20T05:49:33.637Z,10.93
2022-11-20T05:52:02.870Z,10.98
2022-11-20T05:54:30.722Z,10.85
2022-11-20T05:56:58.897Z,11.00
2022-11-20T05:59:26.746Z,11.50
2022-11-20T06:01:54.732Z,11.27
2022-11-20T06:04:22.430Z,11.60
2022-11-20T06:06:50.377Z,11.05
2022-11-20T06:09:19.752Z,11.73
2022-11-20T06:11:47.780Z,12.07
2022-11-20T06:14:15.578Z,12.98
2022-11-20T06:16:43.354Z,12.17
2022-11-20T06:19:11.141Z,11.65
2022-11-20T06:21:39.059Z,11.80
2022-11-20T06:24:07.593Z,11.52
2022-11-20T06:26:36.769Z,11.83
2022-11-20T06:29:05.011Z,11.90
2022-11-20T06:31:35.791Z,11.15
2022-11-20T06:34:03.695Z,11.73
2022-11-20T06:36:31.577Z,11.70
2022-11-20T06:38:59.404Z,11.83
2022-11-20T06:41:27.365Z,10.75
2022-11-20T06:43:56.808Z,12.20
2022-11-20T06:46:24.745Z,10.93
2022-11-20T06:48:52.851Z,9.87
2022-11-20T06:51:20.750Z,11.33
2022-11-20T06:53:48.560Z,10.18
2022-11-20T06:56:16.367Z,11.27
2022-11-20T06:58:44.383Z,10.43
2022-11-20T07:01:15.624Z,12.02
2022-11-20T07:03:43.985Z,11.83
2022-11-20T07:06:12.064Z,11.03
2022-11-20T07:08:39.909Z,10.37
2022-11-20T07:11:09.005Z,10.73
2022-11-20T07:13:37.170Z,12.80
2022-11-20T07:16:07.306Z,9.87
2022-11-20T07:18:36.757Z,11.68
2022-11-20T07:21:04.860Z,10.68
2022-11-20T07:23:33.045Z,9.93
2022-11-20T07:26:05.031Z,10.60
2022-11-20T07:28:32.928Z,11.67
2022-11-20T07:31:00.831Z,10.60
2022-11-20T07:33:28.890Z,10.00
2022-11-20T07:36:00.114Z,10.90
2022-11-20T07:38:28.058Z,10.98
2022-11-20T07:40:57.023Z,11.53
2022-11-20T07:43:24.946Z,10.93
2022-11-20T07:45:53.077Z,10.37
2022-11-20T07:48:21.019Z,11.17
2022-11-20T07:50:48.840Z,11.87
2022-11-20T07:53:21.644Z,13.53
2022-11-20T07:55:50.152Z,12.93
2022-11-20T07:58:18.044Z,11.63
2022-11-20T08:00:45.789Z,11.60
2022-11-20T08:03:13.985Z,12.17
2022-11-20T08:05:41.842Z,12.63
2022-11-20T08:08:09.739Z,11.93
2022-11-20T08:10:39.098Z,11.90
2022-11-20T08:13:24.154Z,11.33
2022-11-20T08:15:52.958Z,11.57
2022-11-20T08:18:31.125Z,11.90
2022-11-20T08:20:59.971Z,12.20
2022-11-20T08:23:27.735Z,12.63
2022-11-20T08:25:56.953Z,11.67
2022-11-20T08:28:24.899Z,11.80
2022-11-20T08:30:52.986Z,11.60
2022-11-20T08:33:20.872Z,11.57
2022-11-20T08:35:48.782Z,11.70
2022-11-20T08:38:16.598Z,11.30
2022-11-20T08:41:05.195Z,12.43
2022-11-20T08:43:34.539Z,13.60
2022-11-20T08:46:02.574Z,12.33
2022-11-20T08:48:30.662Z,11.43
2022-11-20T08:51:00.950Z,11.00
2022-11-20T08:53:28.780Z,12.07
2022-11-20T08:55:56.801Z,12.10
2022-11-20T08:58:24.974Z,11.73
2022-11-20T09:00:54.431Z,12.20
2022-11-20T09:03:32.679Z,11.30
2022-11-20T09:06:01.658Z,10.97
2022-11-20T09:08:30.662Z,11.87
2022-11-20T09:10:59.353Z,11.77
2022-11-20T09:13:29.073Z,11.70
2022-11-20T09:15:59.480Z,15.00
2022-11-20T09:18:29.285Z,11.37
2022-11-20T09:20:59.724Z,11.00
2022-11-20T09:23:28.209Z,12.17
2022-11-20T09:26:00.496Z,10.70
2022-11-20T09:28:28.408Z,10.73
2022-11-20T09:30:56.269Z,10.57
2022-11-20T09:33:25.553Z,11.10
2022-11-20T09:35:53.583Z,11.43
2022-11-20T09:38:21.414Z,11.47
2022-11-20T09:40:57.541Z,11.70
2022-11-20T09:43:35.755Z,10.70
2022-11-20T09:46:11.059Z,10.37
2022-11-20T09:48:52.132Z,11.63
2022-11-20T09:51:32.592Z,11.57
2022-11-20T09:54:13.395Z,11.27
2022-11-20T09:56:44.898Z,11.77
2022-11-20T09:59:25.929Z,13.37
2022-11-20T10:01:54.699Z,10.37
2022-11-20T10:04:24.988Z,13.23
2022-11-20T10:07:30.798Z,12.33
2022-11-20T10:09:56.905Z,11.20
2022-11-20T10:12:33.841Z,12.03
2022-11-20T10:15:14.839Z,10.67
2022-11-20T10:17:58.059Z,10.07
2022-11-20T10:20:34.709Z,12.23
2022-11-20T10:23:25.846Z,11.17
2022-11-20T10:26:03.037Z,11.90
2022-11-20T10:28:53.993Z,13.20
2022-11-20T10:31:34.134Z,11.87
2022-11-20T10:34:12.191Z,12.40
2022-11-20T10:36:49.078Z,12.60
2022-11-20T10:39:25.679Z,12.87
2022-11-20T10:41:55.093Z,13.17
2022-11-20T10:44:38.320Z,12.40
2022-11-20T10:47:07.149Z,12.63
2022-11-20T10:49:36.603Z,13.77
2022-11-20T10:52:15.148Z,12.40
2022-11-20T10:54:50.076Z,12.70
2022-11-20T10:57:27.237Z,12.03
2022-11-20T11:00:03.965Z,12.33
2022-11-20T11:02:41.423Z,13.33
2022-11-20T11:05:34.244Z,12.10
2022-11-20T11:08:05.219Z,12.70
2022-11-20T11:10:42.298Z,11.23
2022-11-20T11:13:21.857Z,12.77
2022-11-20T11:15:49.733Z,10.70
2022-11-20T11:18:26.183Z,10.97
2022-11-20T11:20:55.825Z,11.83
2022-11-20T11:23:37.347Z,11.27
2022-11-20T11:26:08.563Z,10.80
2022-11-20T11:28:36.682Z,10.67
2022-11-20T11:31:04.516Z,11.93
2022-11-20T11:33:35.156Z,12.27
2022-11-20T11:36:05.782Z,10.27
2022-11-20T11:38:38.805Z,11.43
2022-11-20T11:41:08.483Z,12.77
2022-11-20T11:43:56.235Z,13.50
2022-11-20T11:46:31.717Z,10.87
2022-11-20T11:49:01.106Z,11.77
2022-11-20T11:51:35.371Z,10.90
2022-11-20T11:54:14.821Z,12.03
2022-11-20T11:56:43.501Z,11.10
2022-11-20T11:59:18.980Z,11.53
2022-11-20T12:01:53.439Z,9.97
2022-11-20T12:04:28.793Z,10.47
2022-11-20T12:07:18.351Z,10.80
2022-11-20T12:09:56.629Z,9.73
2022-11-20T12:12:29.576Z,10.27
2022-11-20T12:14:59.022Z,10.37
2022-11-20T12:17:27.037Z,10.10
2022-11-20T12:19:54.929Z,10.30
2022-11-20T12:22:34.648Z,9.30
2022-11-20T12:25:09.578Z,10.53
2022-11-20T12:28:09.981Z,9.97
2022-11-20T12:30:49.492Z,10.20
2022-11-20T12:33:30.780Z,9.53
2022-11-20T12:36:11.101Z,10.07
2022-11-20T12:38:55.245Z,10.13
2022-11-20T12:41:59.490Z,9.63
2022-11-20T12:45:03.230Z,9.87
2022-11-20T12:47:41.267Z,10.37
2022-11-20T12:50:17.977Z,9.63
2022-11-20T12:52:51.012Z,10.03
2022-11-20T12:55:29.911Z,10.00
2022-11-20T12:58:04.720Z,8.53
2022-11-20T13:00:35.305Z,7.90
2022-11-20T13:03:30.030Z,6.60
2022-11-20T13:06:06.813Z,6.33
2022-11-20T13:08:37.025Z,7.10
2022-11-20T13:11:15.073Z,7.33
2022-11-20T13:14:05.427Z,8.00
2022-11-20T13:16:42.205Z,7.97
2022-11-20T13:19:13.298Z,8.30
2022-11-20T13:21:43.632Z,7.60
2022-11-20T13:24:25.413Z,7.50
2022-11-20T13:27:06.847Z,6.57
2022-11-20T13:29:37.768Z,8.10
2022-11-20T13:32:15.919Z,7.93
2022-11-20T13:34:54.772Z,7.23
2022-11-20T13:37:31.671Z,7.50
2022-11-20T13:40:25.145Z,8.17
2022-11-20T13:43:09.691Z,7.83
2022-11-20T13:45:38.903Z,7.97
2022-11-20T13:48:21.568Z,7.67
2022-11-20T13:51:00.218Z,7.50
2022-11-20T13:53:43.999Z,7.83
2022-11-20T13:56:21.707Z,7.47
2022-11-20T13:59:05.166Z,7.30
2022-11-20T14:01:35.730Z,7.03
2022-11-20T14:04:10.228Z,6.80
2022-11-20T14:06:45.268Z,6.57
2022-11-20T14:09:14.714Z,7.40
2022-11-20T14:11:49.056Z,8.07
2022-11-20T14:14:20.163Z,7.27
2022-11-20T14:16:51.073Z,6.87
2022-11-20T14:19:28.909Z,8.30
2022-11-20T14:22:09.177Z,7.83
2022-11-20T14:24:37.543Z,9.63
2022-11-20T14:27:05.775Z,7.97
2022-11-20T14:29:37.974Z,7.53
2022-11-20T14:32:07.560Z,8.03
2022-11-20T14:34:41.461Z,7.40
2022-11-20T14:37:17.031Z,7.13
2022-11-20T14:39:53.973Z,7.00
2022-11-20T14:42:24.580Z,7.37
2022-11-20T14:44:54.674Z,7.57
2022-11-20T14:47:26.810Z,7.20
2022-11-20T14:49:57.031Z,7.87
2022-11-20T14:52:26.707Z,7.57
2022-11-20T14:54:55.821Z,7.47
2022-11-20T14:57:27.016Z,7.40
2022-11-20T15:00:07.754Z,7.60
2022-11-20T15:02:40.918Z,7.10
2022-11-20T15:05:09.253Z,9.20
2022-11-20T15:07:39.193Z,7.00
2022-11-20T15:10:10.179Z,7.67
2022-11-20T15:12:42.270Z,8.73
2022-11-20T15:15:14.401Z,7.70
2022-11-20T15:17:43.985Z,7.67
2022-11-20T15:20:16.103Z,8.57
2022-11-20T15:22:44.225Z,8.40
2022-11-20T15:25:16.540Z,7.17
2022-11-20T15:27:44.931Z,7.93
2022-11-20T15:30:18.024Z,8.70
2022-11-20T15:32:48.154Z,6.70
2022-11-20T15:35:17.428Z,20.17
2022-11-20T15:37:45.417Z,8.00
2022-11-20T15:40:13.853Z,19.03
2022-11-20T15:43:02.506Z,8.73
2022-11-20T15:45:33.058Z,8.10
2022-11-20T15:48:03.496Z,8.37
2022-11-20T15:50:38.494Z,7.93
2022-11-20T15:53:06.792Z,8.37
2022-11-20T15:55:34.634Z,7.10
2022-11-20T15:58:02.356Z,9.00
2022-11-20T16:00:31.288Z,9.17
2022-11-20T16:02:59.069Z,10.67
2022-11-20T16:05:30.564Z,9.60
2022-11-20T16:07:58.673Z,8.40
2022-11-20T16:10:26.539Z,7.93
2022-11-20T16:13:12.010Z,8.37
2022-11-20T16:15:49.020Z,7.53
2022-11-20T16:18:19.188Z,8.07
2022-11-20T16:20:50.565Z,8.10
2022-11-20T16:23:18.861Z,9.17
2022-11-20T16:25:46.943Z,8.17
2022-11-20T16:28:18.898Z,15.17
2022-11-20T16:30:47.407Z,8.77
2022-11-20T16:33:17.933Z,9.17
2022-11-20T16:35:46.226Z,9.10
2022-11-20T16:38:15.386Z,8.50
2022-11-20T16:40:43.237Z,9.50
2022-11-20T16:43:13.102Z,10.27
2022-11-20T16:45:44.834Z,9.33
2022-11-20T16:48:17.975Z,8.50
2022-11-20T16:50:50.478Z,8.43
2022-11-20T16:53:20.889Z,8.90
2022-11-20T16:55:49.212Z,15.97
2022-11-20T16:58:17.284Z,9.37
2022-11-20T17:00:51.206Z,8.37
2022-11-20T17:03:20.952Z,8.33
2022-11-20T17:05:48.947Z,8.50
2022-11-20T17:08:16.775Z,9.23
2022-11-20T17:10:46.176Z,10.87
2022-11-20T17:13:14.147Z,9.67
2022-11-20T17:15:42.049Z,10.33
2022-11-20T17:18:09.921Z,10.90
2022-11-20T17:20:37.868Z,11.70
2022-11-20T17:23:05.685Z,11.20
2022-11-20T17:25:34.825Z,11.80
2022-11-20T17:28:04.037Z,11.93
2022-11-20T17:30:32.000Z,11.70
2022-11-20T17:32:59.935Z,11.97
2022-11-20T17:35:27.827Z,11.67
2022-11-20T17:37:55.661Z,10.27
2022-11-20T17:40:27.352Z,10.07
2022-11-20T17:42:55.830Z,18.83
2022-11-20T17:45:25.042Z,10.13
2022-11-20T17:47:52.812Z,12.07
2022-11-20T17:50:20.834Z,11.67
2022-11-20T17:52:48.692Z,10.70
2022-11-20T17:55:16.653Z,10.57
2022-11-20T17:57:58.213Z,10.40
2022-11-20T18:00:28.370Z,10.90
2022-11-20T18:02:56.838Z,10.10
2022-11-20T18:05:24.594Z,9.57
2022-11-20T18:07:54.231Z,9.33
2022-11-20T18:10:22.169Z,10.17
2022-11-20T18:12:50.340Z,13.20
2022-11-20T18:15:18.176Z,9.17
2022-11-20T18:17:47.427Z,9.43
2022-11-20T18:20:29.435Z,17.90
2022-11-20T18:23:00.159Z,9.67
2022-11-20T18:25:28.098Z,8.27
2022-11-20T18:27:56.433Z,8.50
2022-11-20T18:30:24.397Z,9.93
2022-11-20T18:32:53.736Z,9.33
2022-11-20T18:35:22.576Z,9.57
2022-11-20T18:37:53.676Z,9.27
2022-11-20T18:40:21.591Z,9.50
2022-11-20T18:43:08.689Z,10.03
2022-11-20T18:45:39.102Z,9.37
2022-11-20T18:48:08.441Z,8.97
2022-11-20T18:50:36.418Z,8.30
2022-11-20T18:53:04.648Z,9.07
2022-11-20T18:55:33.005Z,15.50
2022-11-20T18:58:00.818Z,9.10
2022-11-20T19:00:28.589Z,9.60
2022-11-20T19:02:56.769Z,9.83
2022-11-20T19:05:26.412Z,12.30
2022-11-20T19:07:54.667Z,10.18
2022-11-20T19:10:24.467Z,10.15
2022-11-20T19:12:52.617Z,9.20
2022-11-20T19:15:20.526Z,9.73
2022-11-20T19:17:48.409Z,9.35
2022-11-20T19:20:16.375Z,8.47
2022-11-20T19:22:45.783Z,9.83
2022-11-20T19:25:13.936Z,10.65
2022-11-20T19:27:42.016Z,9.70
2022-11-20T19:30:11.183Z,8.60
2022-11-20T19:32:39.299Z,8.57
2022-11-20T19:35:07.651Z,9.18
2022-11-20T19:37:36.486Z,9.90
2022-11-20T19:40:06.281Z,9.63
2022-11-20T19:42:34.175Z,10.48
2022-11-20T19:45:03.446Z,9.93
2022-11-20T19:50:24.366Z,10.23
2022-11-20T19:52:58.365Z,9.73
2022-11-20T19:55:28.311Z,9.70
2022-11-20T19:58:00.394Z,9.47
2022-11-20T20:00:32.547Z,10.03
2022-11-20T20:03:01.143Z,9.73
2022-11-20T20:05:29.079Z,10.47
2022-11-20T20:07:57.212Z,9.60
2022-11-20T20:10:25.297Z,9.88
2022-11-20T20:12:54.683Z,10.67
2022-11-20T20:15:22.554Z,11.53
2022-11-20T20:17:52.770Z,9.90
2022-11-20T20:20:21.241Z,11.10
2022-11-20T20:22:49.520Z,10.07
2022-11-20T20:25:20.427Z,10.82
2022-11-20T20:27:48.366Z,11.20
2022-11-20T20:30:18.403Z,10.57
2022-11-20T20:32:46.382Z,11.30
2022-11-20T20:35:14.534Z,10.77
2022-11-20T20:37:42.542Z,9.93
2022-11-20T20:40:15.087Z,9.63
2022-11-20T20:42:43.429Z,10.93
2022-11-20T20:45:14.511Z,10.40
2022-11-20T20:47:43.661Z,10.85
2022-11-20T20:50:13.245Z,10.40
2022-11-20T20:52:41.544Z,12.05
2022-11-20T20:55:10.491Z,10.75
2022-11-20T20:57:38.422Z,10.80
2022-11-20T21:00:07.683Z,11.45
2022-11-20T21:02:35.741Z,10.48
2022-11-20T21:05:05.632Z,11.98
2022-11-20T21:07:33.395Z,12.68
2022-11-20T21:10:01.309Z,11.63
2022-11-20T21:12:29.115Z,11.90
2022-11-20T21:14:57.006Z,11.02
2022-11-20T21:17:25.012Z,11.07
2022-11-20T21:19:52.846Z,11.18
2022-11-20T21:22:21.125Z,11.45
2022-11-20T21:24:49.018Z,12.65
2022-11-20T21:27:17.133Z,13.20
2022-11-20T21:29:45.030Z,11.80
2022-11-20T21:32:12.921Z,12.23
2022-11-20T21:34:41.001Z,11.07
2022-11-20T21:37:08.979Z,12.25
2022-11-20T21:39:50.482Z,12.15
2022-11-20T21:42:18.580Z,11.48
2022-11-20T21:44:47.441Z,12.15
2022-11-20T21:47:15.400Z,12.50
2022-11-20T21:49:43.294Z,11.77
2022-11-20T21:52:11.148Z,11.20
2022-11-20T21:54:40.685Z,12.60
2022-11-20T21:57:08.614Z,13.10
2022-11-20T21:59:37.506Z,12.20
2022-11-20T22:02:05.532Z,11.80
2022-11-20T22:04:33.349Z,12.27
2022-11-20T22:07:01.251Z,12.30
2022-11-20T22:09:29.180Z,13.90
2022-11-20T22:11:58.875Z,11.80
2022-11-20T22:14:26.285Z,13.27
2022-11-20T22:16:55.359Z,13.00
2022-11-20T22:19:24.502Z,12.15
2022-11-20T22:21:52.523Z,13.25
2022-11-20T22:24:22.217Z,13.07
2022-11-20T22:26:50.888Z,14.23
2022-11-20T22:29:21.990Z,14.48
2022-11-20T22:31:53.055Z,14.05
2022-11-20T22:34:21.085Z,13.38
2022-11-20T22:36:51.593Z,13.15
2022-11-20T22:39:22.661Z,14.73
2022-11-20T22:41:50.691Z,14.80
2022-11-20T22:44:20.032Z,15.00
2022-11-20T22:46:48.113Z,15.38
2022-11-20T22:49:15.913Z,15.35
2022-11-20T22:51:43.752Z,15.15
2022-11-20T22:54:13.123Z,16.38
2022-11-20T22:56:41.381Z,16.23
2022-11-20T22:59:10.159Z,16.27
2022-11-20T23:01:39.572Z,15.70
2022-11-20T23:04:10.611Z,15.32
2022-11-20T23:06:38.702Z,15.07
2022-11-20T23:09:08.273Z,15.38
2022-11-20T23:11:36.364Z,14.77
2022-11-20T23:14:09.183Z,15.85
2022-11-20T23:16:37.226Z,14.52
2022-11-20T23:19:09.046Z,14.30
2022-11-20T23:21:39.334Z,15.27
2022-11-20T23:24:08.590Z,13.35
2022-11-20T23:26:39.343Z,13.65
2022-11-20T23:29:07.655Z,14.73
2022-11-20T23:31:36.666Z,13.65
2022-11-20T23:34:06.529Z,13.90
2022-11-20T23:36:34.686Z,13.63
2022-11-20T23:39:02.703Z,14.75
2022-11-20T23:41:30.926Z,13.63
2022-11-20T23:43:58.975Z,14.50
2022-11-20T23:46:26.943Z,15.55
2022-11-20T23:48:54.922Z,13.38
2022-11-20T23:51:24.082Z,13.68
2022-11-20T23:53:52.126Z,14.23
2022-11-20T23:56:19.945Z,14.38
2022-11-20T23:58:47.810Z,13.05
